createdAt,value
2018-12-12T00:00:35.163Z,99731.29
2018-12-12T00:03:03.630Z,99733.86
2018-12-12T00:05:33.202Z,99729.84
2018-12-12T00:08:01.662Z,99721.22
2018-12-12T00:10:30.503Z,99729.08
2018-12-12T00:12:58.937Z,99728.27
2018-12-12T00:15:27.898Z,99728.27
2018-12-12T00:17:58.247Z,99730.43
2018-12-12T00:20:26.953Z,99732.15
2018-12-12T00:22:55.774Z,99731.03
2018-12-12T00:25:24.205Z,99731.58
2018-12-12T00:27:52.657Z,99740.23
2018-12-12T00:30:21.126Z,99733.73
2018-12-12T00:32:50.439Z,99731.84
2018-12-12T00:35:19.175Z,99723.90
2018-12-12T00:37:47.640Z,99731.08
2018-12-12T00:40:16.978Z,99732.12
2018-12-12T00:42:46.321Z,99725.94
2018-12-12T00:45:14.761Z,99733.61
2018-12-12T00:47:43.226Z,99734.60
2018-12-12T00:50:13.389Z,99737.62
2018-12-12T00:52:42.094Z,99737.50
2018-12-12T00:55:11.043Z,99737.85
2018-12-12T00:57:40.053Z,99741.69
2018-12-12T01:00:08.977Z,99738.07
2018-12-12T01:02:37.438Z,99743.41
2018-12-12T01:05:06.773Z,99742.46
2018-12-12T01:07:35.215Z,99750.58
2018-12-12T01:10:03.991Z,99750.98
2018-12-12T01:12:32.447Z,99758.44
2018-12-12T01:15:01.231Z,99752.42
2018-12-12T01:17:31.804Z,99758.73
2018-12-12T01:20:02.306Z,99753.55
2018-12-12T01:22:31.200Z,99752.06
2018-12-12T01:24:59.849Z,99757.69
2018-12-12T01:27:28.883Z,99765.33
2018-12-12T01:29:58.216Z,99761.12
2018-12-12T01:32:27.124Z,99754.84
2018-12-12T01:34:56.262Z,99752.19
2018-12-12T01:37:25.125Z,99761.58
2018-12-12T01:39:53.780Z,99761.12
2018-12-12T01:42:22.452Z,99753.72
2018-12-12T01:44:51.598Z,99748.44
2018-12-12T01:47:20.054Z,99745.47
2018-12-12T01:49:48.883Z,99751.05
2018-12-12T01:52:17.842Z,99752.00
2018-12-12T01:54:46.634Z,99749.89
2018-12-12T01:57:15.101Z,99761.41
2018-12-12T01:59:43.725Z,99758.61
2018-12-12T02:02:13.349Z,99757.62
2018-12-12T02:04:42.029Z,99755.81
2018-12-12T02:07:11.881Z,99762.73
2018-12-12T02:09:40.324Z,99767.15
2018-12-12T02:12:09.828Z,99766.95
2018-12-12T02:14:39.840Z,99767.81
2018-12-12T02:17:08.261Z,99766.95
2018-12-12T02:19:36.724Z,99759.10
2018-12-12T02:22:05.155Z,99763.03
2018-12-12T02:24:33.635Z,99766.91
2018-12-12T02:27:02.036Z,99765.78
2018-12-12T02:29:30.491Z,99768.55
2018-12-12T02:31:58.937Z,99769.41
2018-12-12T02:34:27.371Z,99763.27
2018-12-12T02:36:56.130Z,99770.67
2018-12-12T02:39:26.628Z,99774.59
2018-12-12T02:41:55.895Z,99774.09
2018-12-12T02:44:25.713Z,99773.69
2018-12-12T02:46:54.803Z,99776.41
2018-12-12T02:49:24.672Z,99775.86
2018-12-12T02:51:53.433Z,99773.88
2018-12-12T02:54:21.873Z,99780.33
2018-12-12T02:56:50.287Z,99783.48
2018-12-12T02:59:19.099Z,99783.95
2018-12-12T03:01:47.524Z,99786.61
2018-12-12T03:04:16.011Z,99787.69
2018-12-12T03:06:44.470Z,99785.02
2018-12-12T03:09:13.976Z,99788.08
2018-12-12T03:11:43.264Z,99783.12
2018-12-12T03:14:11.776Z,99791.44
2018-12-12T03:16:42.000Z,99786.69
2018-12-12T03:19:12.736Z,99791.70
2018-12-12T03:21:41.169Z,99785.42
2018-12-12T03:24:10.208Z,99783.95
2018-12-12T03:26:39.713Z,99785.47
2018-12-12T03:29:08.294Z,99788.45
2018-12-12T03:31:36.718Z,99781.67
2018-12-12T03:34:05.791Z,99778.28
2018-12-12T03:36:34.230Z,99773.92
2018-12-12T03:39:02.788Z,99780.99
2018-12-12T03:41:32.038Z,99783.52
2018-12-12T03:44:00.469Z,99784.39
2018-12-12T03:46:29.855Z,99780.05
2018-12-12T03:48:58.711Z,99781.36
2018-12-12T03:51:28.267Z,99782.62
2018-12-12T03:53:57.087Z,99781.67
2018-12-12T03:56:26.919Z,99787.86
2018-12-12T03:58:56.050Z,99788.17
2018-12-12T04:01:25.054Z,99784.52
2018-12-12T04:03:53.522Z,99790.30
2018-12-12T04:06:21.982Z,99793.87
2018-12-12T04:08:51.466Z,99788.95
2018-12-12T04:11:19.930Z,99790.30
2018-12-12T04:13:49.730Z,99786.83
2018-12-12T04:16:18.526Z,99792.16
2018-12-12T04:18:48.495Z,99793.59
2018-12-12T04:21:16.943Z,99796.80
2018-12-12T04:23:45.379Z,99795.09
2018-12-12T04:26:15.033Z,99796.34
2018-12-12T04:28:43.551Z,99796.07
2018-12-12T04:31:11.972Z,99791.82
2018-12-12T04:33:40.875Z,99798.59
2018-12-12T04:36:10.385Z,99802.34
2018-12-12T04:38:39.245Z,99809.45
2018-12-12T04:41:08.172Z,99810.16
2018-12-12T04:43:36.640Z,99808.02
2018-12-12T04:46:05.594Z,99804.22
2018-12-12T04:48:34.889Z,99803.77
2018-12-12T04:51:04.310Z,99793.80
2018-12-12T04:53:32.771Z,99795.31
2018-12-12T04:56:01.719Z,99794.87
2018-12-12T04:58:31.242Z,99793.92
2018-12-12T05:01:00.603Z,99793.15
2018-12-12T05:03:29.297Z,99795.72
2018-12-12T05:05:59.222Z,99798.75
2018-12-12T05:08:27.676Z,99801.00
2018-12-12T05:10:56.128Z,99800.84
2018-12-12T05:13:24.557Z,99793.39
2018-12-12T05:15:53.604Z,99791.91
2018-12-12T05:18:22.029Z,99791.38
2018-12-12T05:20:51.648Z,99792.09
2018-12-12T05:23:20.122Z,99791.17
2018-12-12T05:25:48.533Z,99796.17
2018-12-12T05:28:16.994Z,99790.95
2018-12-12T05:30:46.317Z,99793.31
2018-12-12T05:33:14.769Z,99792.38
2018-12-12T05:35:44.435Z,99794.17
2018-12-12T05:38:13.209Z,99800.46
2018-12-12T05:40:43.240Z,99796.06
2018-12-12T05:43:12.137Z,99799.91
2018-12-12T05:45:42.242Z,99808.27
2018-12-12T05:48:11.374Z,99805.66
2018-12-12T05:50:40.332Z,99817.69
2018-12-12T05:53:09.991Z,99825.37
2018-12-12T05:55:38.455Z,99824.97
2018-12-12T05:58:08.581Z,99829.03
2018-12-12T06:00:38.185Z,99829.14
2018-12-12T06:03:06.621Z,99828.31
2018-12-12T06:05:35.986Z,99832.23
2018-12-12T06:08:06.558Z,99833.13
2018-12-12T06:10:35.055Z,99833.58
2018-12-12T06:13:03.562Z,99840.56
2018-12-12T06:15:32.893Z,99832.34
2018-12-12T06:18:01.732Z,99830.69
2018-12-12T06:20:30.406Z,99838.53
2018-12-12T06:23:00.065Z,99835.92
2018-12-12T06:25:29.387Z,99837.22
2018-12-12T06:27:57.847Z,99837.22
2018-12-12T06:30:26.515Z,99835.06
2018-12-12T06:32:54.965Z,99837.19
2018-12-12T06:35:23.906Z,99835.88
2018-12-12T06:37:53.658Z,99838.59
2018-12-12T06:40:23.609Z,99837.33
2018-12-12T06:42:53.065Z,99840.38
2018-12-12T06:45:23.107Z,99843.79
2018-12-12T06:47:51.805Z,99844.27
2018-12-12T06:50:21.044Z,99854.69
2018-12-12T06:52:49.505Z,99854.66
2018-12-12T06:55:18.509Z,99855.89
2018-12-12T06:58:01.212Z,99852.39
2018-12-12T07:00:36.805Z,99860.98
2018-12-12T07:03:07.321Z,99857.51
2018-12-12T07:05:36.918Z,99863.08
2018-12-12T07:08:08.032Z,99870.92
2018-12-12T07:10:41.295Z,99867.97
2018-12-12T07:13:14.131Z,99872.70
2018-12-12T07:15:50.471Z,99871.44
2018-12-12T07:18:23.702Z,99870.55
2018-12-12T07:23:45.811Z,99869.62
2018-12-12T07:26:19.593Z,99872.23
2018-12-12T07:28:53.948Z,99867.92
2018-12-12T07:31:35.760Z,99871.09
2018-12-12T07:34:14.256Z,99872.95
2018-12-12T07:36:54.617Z,99873.84
2018-12-12T07:39:25.077Z,99873.88
2018-12-12T07:41:54.473Z,99876.45
2018-12-12T07:47:27.106Z,99877.59
2018-12-12T07:50:01.554Z,99875.70
2018-12-12T07:52:31.165Z,99879.45
2018-12-12T07:55:08.886Z,99878.48
2018-12-12T07:57:41.771Z,99878.86
2018-12-12T08:00:13.908Z,99877.86
2018-12-12T08:02:42.993Z,99873.86
2018-12-12T08:05:16.333Z,99872.19
2018-12-12T08:07:50.812Z,99880.78
2018-12-12T08:10:29.960Z,99879.09
2018-12-12T08:13:00.352Z,99881.27
2018-12-12T08:15:35.737Z,99881.59
2018-12-12T08:18:04.186Z,99881.27
2018-12-12T08:20:33.243Z,99882.05
2018-12-12T08:23:02.151Z,99887.20
2018-12-12T08:25:34.679Z,99882.28
2018-12-12T08:28:05.760Z,99882.27
2018-12-12T08:30:38.039Z,99881.42
2018-12-12T08:33:11.185Z,99886.31
2018-12-12T08:35:44.399Z,99886.09
2018-12-12T08:38:20.992Z,99879.92
2018-12-12T08:41:00.857Z,99879.06
2018-12-12T08:43:30.533Z,99875.84
2018-12-12T08:46:05.603Z,99878.31
2018-12-12T08:48:46.174Z,99881.78
2018-12-12T08:51:25.979Z,99883.38
2018-12-12T08:53:54.613Z,99890.95
2018-12-12T08:56:24.343Z,99877.58
2018-12-12T08:58:54.125Z,99879.67
2018-12-12T09:01:27.087Z,99885.64
2018-12-12T09:03:56.497Z,99884.93
2018-12-12T09:06:28.491Z,99884.27
2018-12-12T09:08:57.339Z,99881.09
2018-12-12T09:11:26.799Z,99883.34
2018-12-12T09:13:55.343Z,99886.44
2018-12-12T09:16:23.894Z,99886.64
2018-12-12T09:18:53.195Z,99887.79
2018-12-12T09:21:21.656Z,99890.91
2018-12-12T09:23:50.932Z,99888.75
2018-12-12T09:26:19.775Z,99887.42
2018-12-12T09:28:49.203Z,99881.96
2018-12-12T09:31:31.106Z,99892.00
2018-12-12T09:34:03.093Z,99895.83
2018-12-12T09:36:35.161Z,99889.98
2018-12-12T09:39:08.108Z,99892.80
2018-12-12T09:41:38.147Z,99885.81
2018-12-12T09:44:07.991Z,99887.53
2018-12-12T09:46:39.576Z,99891.09
2018-12-12T09:49:09.790Z,99881.66
2018-12-12T09:51:41.692Z,99888.34
2018-12-12T09:54:11.259Z,99887.37
2018-12-12T09:56:40.349Z,99889.23
2018-12-12T09:59:09.211Z,99893.62
2018-12-12T10:01:38.009Z,99892.13
2018-12-12T10:04:06.805Z,99891.80
2018-12-12T10:06:35.653Z,99888.69
2018-12-12T10:09:14.249Z,99889.83
2018-12-12T10:11:49.604Z,99891.95
2018-12-12T10:14:19.525Z,99899.18
2018-12-12T10:16:48.407Z,99901.97
2018-12-12T10:19:18.425Z,99898.96
2018-12-12T10:21:48.222Z,99900.41
2018-12-12T10:24:18.190Z,99903.39
2018-12-12T10:26:48.043Z,99900.14
2018-12-12T10:29:21.747Z,99903.16
2018-12-12T10:31:51.809Z,99901.85
2018-12-12T10:34:20.852Z,99897.47
2018-12-12T10:36:49.916Z,99906.55
2018-12-12T10:39:20.649Z,99903.88
2018-12-12T10:41:49.135Z,99904.70
2018-12-12T10:44:19.285Z,99902.57
2018-12-12T10:46:48.235Z,99891.52
2018-12-12T10:49:17.874Z,99895.70
2018-12-12T10:51:48.645Z,99894.05
2018-12-12T10:54:18.862Z,99888.56
2018-12-12T10:56:47.816Z,99888.43
2018-12-12T10:59:17.607Z,99884.95
2018-12-12T11:01:48.758Z,99884.98
2018-12-12T11:04:19.272Z,99882.65
2018-12-12T11:06:48.314Z,99879.06
2018-12-12T11:09:17.826Z,99883.08
2018-12-12T11:11:46.491Z,99880.95
2018-12-12T11:14:15.222Z,99876.07
2018-12-12T11:16:44.036Z,99869.56
2018-12-12T11:19:12.489Z,99868.80
2018-12-12T11:21:40.933Z,99866.84
2018-12-12T11:24:09.690Z,99862.56
2018-12-12T11:26:38.354Z,99852.94
2018-12-12T11:29:06.832Z,99850.64
2018-12-12T11:31:35.576Z,99834.53
2018-12-12T11:34:04.121Z,99830.88
2018-12-12T11:36:32.958Z,99825.80
2018-12-12T11:39:03.423Z,99813.18
2018-12-12T11:41:31.878Z,99815.77
2018-12-12T11:44:00.327Z,99810.41
2018-12-12T11:46:29.043Z,99803.56
2018-12-12T11:48:58.390Z,99801.11
2018-12-12T11:51:27.267Z,99800.73
2018-12-12T11:53:56.047Z,99799.79
2018-12-12T11:56:24.766Z,99794.99
2018-12-12T11:58:52.686Z,99800.38
2018-12-12T12:01:21.852Z,99795.91
2018-12-12T12:03:56.755Z,99801.30
2018-12-12T12:06:23.172Z,99807.14
2018-12-12T12:08:52.192Z,99811.19
2018-12-12T12:11:21.734Z,99813.02
2018-12-12T12:13:51.386Z,99811.89
2018-12-12T12:16:20.343Z,99809.06
2018-12-12T12:18:50.460Z,99807.47
2018-12-12T12:21:19.649Z,99813.15
2018-12-12T12:23:49.002Z,99807.34
2018-12-12T12:26:17.492Z,99808.21
2018-12-12T12:28:45.912Z,99810.27
2018-12-12T12:31:14.904Z,99807.34
2018-12-12T12:33:45.084Z,99812.33
2018-12-12T12:36:14.139Z,99808.67
2018-12-12T12:38:45.053Z,99799.80
2018-12-12T12:41:15.299Z,99793.81
2018-12-12T12:43:44.346Z,99781.95
2018-12-12T12:46:14.198Z,99775.81
2018-12-12T12:48:43.445Z,99772.44
2018-12-12T12:51:15.147Z,99761.22
2018-12-12T12:53:46.267Z,99757.16
2018-12-12T12:56:23.275Z,99752.72
2018-12-12T12:58:52.225Z,99746.30
2018-12-12T13:01:21.623Z,99765.52
2018-12-12T13:03:53.699Z,99757.13
2018-12-12T13:06:26.124Z,99757.54
2018-12-12T13:08:56.795Z,99751.97
2018-12-12T13:11:27.089Z,99752.23
2018-12-12T13:13:57.030Z,99740.21
2018-12-12T13:16:26.819Z,99744.27
2018-12-12T13:18:55.541Z,99737.30
2018-12-12T13:21:24.017Z,99745.92
2018-12-12T13:23:52.481Z,99745.66
2018-12-12T13:26:20.927Z,99745.56
2018-12-12T13:28:49.392Z,99748.11
2018-12-12T13:31:18.396Z,99745.23
2018-12-12T13:33:47.686Z,99750.95
2018-12-12T13:36:18.362Z,99753.86
2018-12-12T13:38:46.807Z,99759.84
2018-12-12T13:41:16.091Z,99762.39
2018-12-12T13:43:45.118Z,99766.83
2018-12-12T13:46:14.022Z,99766.06
2018-12-12T13:48:42.704Z,99763.84
2018-12-12T13:51:11.131Z,99763.80
2018-12-12T13:53:39.799Z,99776.02
2018-12-12T13:56:08.485Z,99777.09
2018-12-12T13:58:37.687Z,99767.65
2018-12-12T14:01:06.492Z,99770.53
2018-12-12T14:03:35.730Z,99771.47
2018-12-12T14:06:04.552Z,99773.61
2018-12-12T14:08:33.895Z,99775.96
2018-12-12T14:11:03.025Z,99772.56
2018-12-12T14:13:32.249Z,99771.41
2018-12-12T14:16:00.692Z,99776.11
2018-12-12T14:18:30.351Z,99775.50
2018-12-12T14:20:59.898Z,99777.69
2018-12-12T14:23:28.555Z,99773.23
2018-12-12T14:25:58.906Z,99774.66
2018-12-12T14:28:27.373Z,99775.33
2018-12-12T14:30:56.818Z,99770.97
2018-12-12T14:33:25.503Z,99780.33
2018-12-12T14:35:53.970Z,99776.33
2018-12-12T14:38:26.092Z,99772.98
2018-12-12T14:40:55.656Z,99778.89
2018-12-12T14:43:26.164Z,99774.15
2018-12-12T14:45:57.532Z,99776.31
2018-12-12T14:48:30.298Z,99779.59
2018-12-12T14:50:59.643Z,99788.42
2018-12-12T14:53:30.131Z,99785.75
2018-12-12T14:55:58.607Z,99785.06
2018-12-12T14:58:28.283Z,99786.84
2018-12-12T15:00:57.618Z,99788.95
2018-12-12T15:03:26.091Z,99794.13
2018-12-12T15:05:54.562Z,99796.58
2018-12-12T15:08:25.154Z,99798.07
2018-12-12T15:10:59.533Z,99799.95
2018-12-12T15:13:37.235Z,99796.25
2018-12-12T15:16:07.142Z,99793.66
2018-12-12T15:18:39.358Z,99793.89
2018-12-12T15:21:17.825Z,99794.29
2018-12-12T15:23:50.181Z,99798.23
2018-12-12T15:26:24.443Z,99807.08
2018-12-12T15:28:57.679Z,99802.92
2018-12-12T15:31:29.704Z,99798.25
2018-12-12T15:34:04.961Z,99801.17
2018-12-12T15:36:39.633Z,99803.75
2018-12-12T15:39:11.894Z,99802.64
2018-12-12T15:41:47.699Z,99800.83
2018-12-12T15:44:18.456Z,99794.23
2018-12-12T15:46:47.870Z,99796.49
2018-12-12T15:49:26.856Z,99789.63
2018-12-12T15:52:00.981Z,99795.59
2018-12-12T15:54:34.272Z,99803.52
2018-12-12T15:57:05.725Z,99800.98
2018-12-12T15:59:35.635Z,99793.68
2018-12-12T16:02:14.742Z,99796.28
2018-12-12T16:04:51.622Z,99798.09
2018-12-12T16:07:21.178Z,99795.84
2018-12-12T16:09:51.571Z,99800.38
2018-12-12T16:12:23.935Z,99791.91
2018-12-12T16:14:57.957Z,99789.91
2018-12-12T16:17:27.934Z,99789.59
2018-12-12T16:19:59.046Z,99784.91
2018-12-12T16:22:30.690Z,99794.08
2018-12-12T16:25:02.759Z,99794.02
2018-12-12T16:27:33.746Z,99789.44
2018-12-12T16:30:05.727Z,99795.20
2018-12-12T16:32:37.612Z,99792.83
2018-12-12T16:35:10.585Z,99790.19
2018-12-12T16:37:39.962Z,99789.29
2018-12-12T16:40:09.633Z,99800.44
2018-12-12T16:42:39.050Z,99794.98
2018-12-12T16:45:08.330Z,99789.55
2018-12-12T16:47:36.857Z,99794.98
2018-12-12T16:50:06.182Z,99802.75
2018-12-12T16:52:36.123Z,99798.37
2018-12-12T16:55:15.389Z,99801.45
2018-12-12T16:57:45.159Z,99799.12
2018-12-12T17:00:14.266Z,99808.34
2018-12-12T17:02:43.592Z,99801.38
2018-12-12T17:05:39.369Z,99806.94
2018-12-12T17:08:16.460Z,99805.92
2018-12-12T17:10:45.882Z,99805.22
2018-12-12T17:13:27.569Z,99799.06
2018-12-12T17:15:58.117Z,99805.88
2018-12-12T17:18:30.701Z,99798.31
2018-12-12T17:21:01.760Z,99791.30
2018-12-12T17:23:31.106Z,99794.44
2018-12-12T17:25:59.593Z,99794.13
2018-12-12T17:28:28.094Z,99785.86
2018-12-12T17:30:56.722Z,99790.84
2018-12-12T17:33:25.851Z,99787.87
2018-12-12T17:35:55.787Z,99785.76
2018-12-12T17:38:27.524Z,99789.38
2018-12-12T17:40:57.864Z,99789.56
2018-12-12T17:43:27.013Z,99793.84
2018-12-12T17:46:02.624Z,99788.16
2018-12-12T17:48:34.192Z,99786.67
2018-12-12T17:51:02.626Z,99783.73
2018-12-12T17:53:31.214Z,99783.23
2018-12-12T17:55:59.918Z,99780.25
2018-12-12T17:58:31.470Z,99781.89
2018-12-12T18:01:01.993Z,99780.27
2018-12-12T18:03:31.049Z,99779.73
2018-12-12T18:06:00.986Z,99779.63
2018-12-12T18:08:33.237Z,99779.90
2018-12-12T18:11:01.734Z,99781.97
2018-12-12T18:13:31.003Z,99786.80
2018-12-12T18:16:04.710Z,99786.54
2018-12-12T18:18:38.082Z,99789.91
2018-12-12T18:21:06.659Z,99782.41
2018-12-12T18:23:41.607Z,99783.59
2018-12-12T18:26:10.688Z,99787.97
2018-12-12T18:28:39.888Z,99785.44
2018-12-12T18:31:13.340Z,99782.51
2018-12-12T18:33:42.018Z,99780.80
2018-12-12T18:36:10.887Z,99778.14
2018-12-12T18:38:46.804Z,99778.58
2018-12-12T18:41:19.190Z,99777.67
2018-12-12T18:43:50.638Z,99773.53
2018-12-12T18:46:19.771Z,99782.01
2018-12-12T18:48:49.543Z,99781.47
2018-12-12T18:51:20.416Z,99783.59
2018-12-12T18:53:56.332Z,99785.55
2018-12-12T18:56:26.327Z,99785.44
2018-12-12T18:58:55.383Z,99789.53
2018-12-12T19:01:24.121Z,99788.63
2018-12-12T19:03:54.347Z,99785.16
2018-12-12T19:06:23.483Z,99792.06
2018-12-12T19:08:53.152Z,99782.84
2018-12-12T19:11:21.836Z,99778.00
2018-12-12T19:13:50.238Z,99772.45
2018-12-12T19:16:18.886Z,99776.94
2018-12-12T19:18:47.489Z,99772.41
2018-12-12T19:21:18.499Z,99777.88
2018-12-12T19:23:47.919Z,99776.08
2018-12-12T19:26:20.027Z,99775.58
2018-12-12T19:28:48.915Z,99774.77
2018-12-12T19:31:18.109Z,99775.06
2018-12-12T19:33:46.540Z,99772.63
2018-12-12T19:36:16.415Z,99775.74
2018-12-12T19:38:44.954Z,99778.02
2018-12-12T19:41:13.424Z,99779.41
2018-12-12T19:43:42.609Z,99774.41
2018-12-12T19:46:11.631Z,99767.86
2018-12-12T19:48:40.106Z,99772.47
2018-12-12T19:51:11.258Z,99773.52
2018-12-12T19:53:39.895Z,99770.63
2018-12-12T19:56:08.455Z,99771.75
2018-12-12T19:58:37.166Z,99765.91
2018-12-12T20:01:05.648Z,99766.68
2018-12-12T20:03:34.980Z,99767.13
2018-12-12T20:06:03.735Z,99764.06
2018-12-12T20:08:32.549Z,99768.79
2018-12-12T20:11:01.009Z,99769.61
2018-12-12T20:13:29.512Z,99767.94
2018-12-12T20:15:57.959Z,99761.34
2018-12-12T20:18:28.197Z,99764.36
2018-12-12T20:20:56.701Z,99753.08
2018-12-12T20:23:25.414Z,99753.17
2018-12-12T20:25:54.083Z,99753.22
2018-12-12T20:28:25.975Z,99755.69
2018-12-12T20:30:55.314Z,99754.63
2018-12-12T20:33:24.158Z,99754.94
2018-12-12T20:35:53.716Z,99758.77
2018-12-12T20:38:22.344Z,99760.49
2018-12-12T20:40:55.028Z,99752.62
2018-12-12T20:43:23.854Z,99751.86
2018-12-12T20:45:52.357Z,99752.45
2018-12-12T20:48:21.496Z,99755.39
2018-12-12T20:50:53.077Z,99755.34
2018-12-12T20:53:23.433Z,99753.22
2018-12-12T20:55:53.894Z,99744.46
2018-12-12T20:58:23.106Z,99750.36
2018-12-12T21:00:53.579Z,99747.83
2018-12-12T21:03:22.120Z,99746.87
2018-12-12T21:05:54.662Z,99744.55
2018-12-12T21:08:24.243Z,99747.94
2018-12-12T21:10:53.895Z,99739.36
2018-12-12T21:13:22.373Z,99746.41
2018-12-12T21:15:52.248Z,99741.94
2018-12-12T21:18:21.853Z,99742.53
2018-12-12T21:20:50.555Z,99745.02
2018-12-12T21:23:19.041Z,99740.23
2018-12-12T21:25:49.623Z,99739.87
2018-12-12T21:28:18.841Z,99739.46
2018-12-12T21:30:51.622Z,99741.67
2018-12-12T21:33:20.823Z,99748.48
2018-12-12T21:36:00.804Z,99746.46
2018-12-12T21:38:27.874Z,99740.45
2018-12-12T21:40:56.711Z,99734.19
2018-12-12T21:43:26.106Z,99739.84
2018-12-12T21:45:56.138Z,99737.62
2018-12-12T21:48:27.955Z,99737.84
2018-12-12T21:50:56.467Z,99740.28
2018-12-12T21:53:25.046Z,99736.72
2018-12-12T21:55:53.904Z,99737.17
2018-12-12T21:58:22.358Z,99738.30
2018-12-12T22:00:53.385Z,99743.30
2018-12-12T22:03:21.941Z,99732.88
2018-12-12T22:05:50.695Z,99735.55
2018-12-12T22:08:19.386Z,99729.45
2018-12-12T22:10:49.329Z,99731.17
2018-12-12T22:13:18.029Z,99727.61
2018-12-12T22:15:46.501Z,99728.11
2018-12-12T22:18:14.935Z,99719.76
2018-12-12T22:20:43.385Z,99717.69
2018-12-12T22:23:13.857Z,99721.34
2018-12-12T22:25:43.400Z,99715.93
2018-12-12T22:28:12.471Z,99718.27
2018-12-12T22:30:41.925Z,99716.06
2018-12-12T22:33:15.368Z,99716.83
2018-12-12T22:35:45.130Z,99712.54
2018-12-12T22:38:13.891Z,99718.31
2018-12-12T22:40:42.435Z,99713.09
2018-12-12T22:43:11.405Z,99714.94
2018-12-12T22:45:41.764Z,99711.41
2018-12-12T22:48:11.534Z,99712.72
2018-12-12T22:50:40.044Z,99713.03
2018-12-12T22:53:09.463Z,99717.86
2018-12-12T22:55:38.217Z,99708.02
2018-12-12T22:58:08.380Z,99710.42
2018-12-12T23:00:38.078Z,99704.23
2018-12-12T23:03:06.630Z,99703.87
2018-12-12T23:05:37.410Z,99705.05
2018-12-12T23:08:06.356Z,99703.23
2018-12-12T23:10:36.378Z,99704.77
2018-12-12T23:13:05.852Z,99703.87
2018-12-12T23:15:36.109Z,99705.22
2018-12-12T23:18:06.499Z,99704.09
2018-12-12T23:20:34.961Z,99699.35
2018-12-12T23:23:03.447Z,99692.86
2018-12-12T23:25:32.127Z,99699.48
2018-12-12T23:28:00.686Z,99700.88
2018-12-12T23:30:29.338Z,99705.13
2018-12-12T23:32:57.803Z,99708.06
2018-12-12T23:35:26.347Z,99700.53
2018-12-12T23:37:54.804Z,99697.23
2018-12-12T23:40:23.659Z,99694.08
2018-12-12T23:42:52.108Z,99693.98
2018-12-12T23:45:20.875Z,99689.77
2018-12-12T23:47:49.348Z,99683.57
2018-12-12T23:50:18.867Z,99682.27
2018-12-12T23:52:47.336Z,99683.52
2018-12-12T23:55:15.762Z,99680.42
2018-12-12T23:57:44.241Z,99685.56
